createdAt,value
2023-01-23T00:02:05.822Z,26.56
2023-01-23T00:04:36.970Z,26.53
2023-01-23T00:07:07.251Z,26.47
2023-01-23T00:09:37.291Z,26.46
2023-01-23T00:12:07.807Z,26.39
2023-01-23T00:14:41.575Z,26.47
2023-01-23T00:17:12.083Z,26.41
2023-01-23T00:19:42.104Z,26.43
2023-01-23T00:37:12.256Z,26.23
2023-01-23T00:39:51.932Z,26.20
2023-01-23T00:42:24.516Z,26.37
2023-01-23T00:44:57.596Z,26.07
2023-01-23T00:47:29.711Z,26.00
2023-01-23T00:50:02.316Z,25.90
2023-01-23T00:52:33.158Z,25.83
2023-01-23T00:55:03.896Z,25.66
2023-01-23T00:57:34.279Z,25.61
2023-01-23T01:00:07.766Z,25.63
2023-01-23T01:46:23.992Z,25.72
2023-01-23T01:49:16.497Z,25.78
2023-01-23T01:52:04.645Z,25.76
2023-01-23T01:54:43.492Z,25.72
2023-01-23T01:57:41.167Z,25.75
2023-01-23T02:00:21.445Z,25.69
2023-01-23T02:03:02.596Z,25.63
2023-01-23T02:05:37.520Z,25.76
2023-01-23T02:08:23.053Z,25.75
2023-01-23T02:11:15.400Z,25.68
2023-01-23T02:13:49.011Z,25.66
2023-01-23T02:16:29.199Z,25.63
2023-01-23T02:19:08.103Z,25.53
2023-01-23T02:21:47.471Z,25.49
2023-01-23T02:24:39.861Z,25.53
2023-01-23T02:27:26.126Z,25.48
2023-01-23T02:29:58.075Z,25.41
2023-01-23T02:32:34.046Z,25.24
2023-01-23T02:35:16.165Z,25.17
2023-01-23T02:37:48.789Z,25.10
2023-01-23T02:40:20.161Z,25.10
2023-01-23T02:42:53.720Z,25.07
2023-01-23T02:45:24.547Z,24.91
2023-01-23T02:47:54.405Z,24.79
2023-01-23T02:50:32.480Z,24.80
2023-01-23T02:53:11.515Z,24.80
2023-01-23T02:55:53.801Z,24.87
2023-01-23T02:58:52.003Z,24.88
2023-01-23T03:01:25.332Z,24.90
2023-01-23T03:03:59.461Z,25.03
2023-01-23T03:06:34.941Z,25.08
2023-01-23T03:09:12.994Z,25.18
2023-01-23T03:11:49.710Z,25.10
2023-01-23T03:14:23.135Z,25.06
2023-01-23T03:16:56.679Z,25.11
2023-01-23T03:19:35.550Z,25.06
2023-01-23T03:22:08.935Z,25.10
2023-01-23T03:24:42.080Z,25.01
2023-01-23T03:29:59.655Z,25.24
2023-01-23T03:32:33.232Z,25.07
2023-01-23T03:35:03.574Z,24.98
2023-01-23T03:37:33.631Z,24.92
2023-01-23T03:40:24.132Z,24.92
2023-01-23T03:42:54.773Z,24.84
2023-01-23T03:45:30.409Z,24.83
2023-01-23T03:48:00.711Z,24.80
2023-01-23T03:50:32.516Z,24.86
2023-01-23T03:53:02.784Z,24.81
2023-01-23T03:55:33.171Z,24.81
2023-01-23T03:58:03.227Z,24.79
2023-01-23T04:00:34.624Z,24.73
2023-01-23T04:03:10.103Z,24.76
2023-01-23T04:05:41.696Z,24.71
2023-01-23T04:08:11.782Z,24.66
2023-01-23T04:10:41.660Z,24.61
2023-01-23T04:13:16.986Z,24.59
2023-01-23T04:15:47.580Z,24.66
2023-01-23T04:18:18.681Z,24.59
2023-01-23T04:20:49.501Z,24.49
2023-01-23T04:23:19.883Z,24.41
2023-01-23T04:25:51.703Z,24.47
2023-01-23T04:28:23.221Z,24.35
2023-01-23T04:30:54.640Z,24.30
2023-01-23T04:33:31.384Z,24.35
2023-01-23T04:36:03.523Z,24.36
2023-01-23T04:38:34.906Z,24.40
2023-01-23T04:41:30.329Z,24.40
2023-01-23T04:44:22.269Z,24.36
2023-01-23T04:49:59.689Z,24.39
2023-01-23T04:52:33.274Z,24.43
2023-01-23T04:55:03.540Z,24.39
2023-01-23T04:57:33.977Z,24.36
2023-01-23T05:00:16.598Z,24.41
2023-01-23T05:02:48.451Z,24.46
2023-01-23T05:05:21.912Z,24.37
2023-01-23T05:07:54.091Z,24.46
2023-01-23T05:10:24.561Z,24.30
2023-01-23T05:12:54.667Z,24.22
2023-01-23T05:15:25.462Z,24.23
2023-01-23T05:17:55.379Z,24.22
2023-01-23T05:20:25.859Z,24.18
2023-01-23T05:22:58.648Z,24.15
2023-01-23T05:25:47.173Z,24.13
2023-01-23T05:28:17.383Z,24.08
2023-01-23T05:30:52.095Z,24.02
2023-01-23T05:33:28.363Z,24.04
2023-01-23T05:36:02.197Z,24.08
2023-01-23T05:38:32.436Z,24.09
2023-01-23T05:41:02.307Z,24.05
2023-01-23T05:43:41.563Z,24.08
2023-01-23T05:46:33.453Z,23.99
2023-01-23T05:49:03.808Z,23.96
2023-01-23T05:51:35.033Z,23.92
2023-01-23T05:54:05.558Z,23.90
2023-01-23T05:56:36.477Z,23.89
2023-01-23T05:59:24.802Z,23.85
2023-01-23T06:02:12.055Z,23.82
2023-01-23T06:04:42.330Z,23.84
2023-01-23T06:07:26.718Z,23.81
2023-01-23T06:09:59.906Z,23.78
2023-01-23T06:12:29.972Z,23.78
2023-01-23T06:14:59.765Z,23.76
2023-01-23T06:17:30.037Z,23.76
2023-01-23T06:19:59.970Z,23.74
2023-01-23T06:22:31.548Z,23.76
2023-01-23T06:25:09.978Z,23.74
2023-01-23T06:27:40.260Z,23.72
2023-01-23T06:30:12.357Z,23.65
2023-01-23T06:32:44.804Z,23.67
2023-01-23T06:35:18.438Z,23.65
2023-01-23T06:37:49.135Z,23.68
2023-01-23T06:40:21.993Z,23.64
2023-01-23T06:43:10.515Z,23.64
2023-01-23T06:45:40.807Z,23.61
2023-01-23T06:48:10.599Z,23.62
2023-01-23T06:50:44.735Z,23.61
2023-01-23T06:53:16.917Z,23.61
2023-01-23T06:55:48.273Z,23.61
2023-01-23T06:58:19.792Z,23.62
2023-01-23T07:00:51.705Z,23.67
2023-01-23T07:03:41.619Z,23.64
2023-01-23T07:06:12.482Z,23.61
2023-01-23T07:08:44.031Z,23.59
2023-01-23T07:11:14.569Z,23.59
2023-01-23T07:13:45.238Z,23.57
2023-01-23T07:16:17.603Z,23.50
2023-01-23T07:18:47.889Z,23.50
2023-01-23T07:21:17.750Z,23.55
2023-01-23T07:23:47.902Z,23.48
2023-01-23T07:26:17.672Z,23.45
2023-01-23T07:28:47.760Z,23.48
2023-01-23T07:31:17.822Z,23.45
2023-01-23T07:33:48.502Z,23.48
2023-01-23T07:36:19.635Z,23.44
2023-01-23T07:38:49.586Z,23.40
2023-01-23T07:41:19.337Z,23.38
2023-01-23T07:43:49.503Z,23.35
2023-01-23T07:46:26.913Z,23.28
2023-01-23T07:48:57.786Z,23.28
2023-01-23T07:51:27.698Z,23.28
2023-01-23T07:53:57.722Z,23.25
2023-01-23T07:56:27.556Z,23.13
2023-01-23T07:58:57.649Z,23.06
2023-01-23T08:01:55.957Z,23.13
2023-01-23T08:04:26.116Z,23.11
2023-01-23T08:06:55.890Z,23.14
2023-01-23T08:09:26.986Z,23.20
2023-01-23T08:11:57.245Z,23.20
2023-01-23T08:14:27.476Z,23.27
2023-01-23T08:16:57.875Z,23.17
2023-01-23T08:19:28.571Z,23.11
2023-01-23T08:21:58.356Z,23.07
2023-01-23T08:24:28.486Z,23.07
2023-01-23T08:26:58.304Z,23.00
2023-01-23T08:29:28.916Z,22.94
2023-01-23T08:32:03.477Z,23.02
2023-01-23T08:34:33.724Z,23.06
2023-01-23T08:37:04.711Z,23.04
2023-01-23T08:40:05.072Z,23.04
2023-01-23T08:42:37.108Z,22.97
2023-01-23T08:45:07.572Z,22.93
2023-01-23T08:47:37.785Z,22.97
2023-01-23T08:50:12.481Z,23.03
2023-01-23T08:52:45.981Z,23.02
2023-01-23T08:55:16.861Z,23.10
2023-01-23T08:57:46.863Z,23.13
2023-01-23T09:00:17.257Z,23.15
2023-01-23T09:05:50.897Z,23.17
2023-01-23T09:08:21.012Z,23.21
2023-01-23T09:10:50.821Z,23.25
2023-01-23T09:13:20.960Z,23.37
2023-01-23T09:15:50.762Z,23.50
2023-01-23T09:18:23.280Z,23.62
2023-01-23T09:20:54.289Z,23.76
2023-01-23T09:23:25.193Z,23.92
2023-01-23T09:25:55.160Z,24.05
2023-01-23T09:28:24.946Z,24.12
2023-01-23T09:30:55.263Z,24.20
2023-01-23T09:33:28.266Z,24.35
2023-01-23T09:35:58.992Z,24.49
2023-01-23T09:38:29.472Z,24.66
2023-01-23T09:41:01.052Z,24.81
2023-01-23T09:43:33.779Z,24.91
2023-01-23T09:46:17.330Z,25.01
2023-01-23T09:49:00.931Z,25.07
2023-01-23T09:52:12.826Z,25.31
2023-01-23T09:54:55.229Z,25.46
2023-01-23T09:57:40.782Z,25.57
2023-01-23T10:00:16.975Z,25.66
2023-01-23T10:02:47.894Z,25.69
2023-01-23T10:05:20.709Z,25.76
2023-01-23T10:08:30.188Z,25.92
2023-01-23T10:11:15.589Z,26.02
2023-01-23T10:14:17.366Z,26.12
2023-01-23T10:17:15.335Z,27.59
2023-01-23T10:20:20.709Z,30.52
2023-01-23T10:22:52.382Z,29.01
2023-01-23T10:25:27.002Z,29.96
2023-01-23T10:28:14.351Z,29.97
2023-01-23T10:30:51.290Z,28.25
2023-01-23T10:33:21.621Z,27.62
2023-01-23T10:36:00.279Z,27.58
2023-01-23T10:38:37.239Z,27.72
2023-01-23T10:41:16.009Z,28.55
2023-01-23T10:44:18.252Z,29.39
2023-01-23T10:46:54.008Z,29.97
2023-01-23T10:49:42.489Z,30.27
2023-01-23T10:52:52.379Z,30.72
2023-01-23T10:55:23.580Z,30.74
2023-01-23T10:57:58.298Z,31.18
2023-01-23T11:00:37.223Z,31.27
2023-01-23T11:03:24.636Z,31.29
2023-01-23T11:06:08.638Z,31.33
2023-01-23T11:08:41.900Z,29.81
2023-01-23T11:11:32.772Z,29.53
2023-01-23T11:14:09.125Z,28.94
2023-01-23T11:16:50.693Z,28.55
2023-01-23T11:19:49.851Z,28.62
2023-01-23T11:22:41.141Z,28.85
2023-01-23T11:25:50.830Z,28.84
2023-01-23T11:28:39.693Z,28.39
2023-01-23T11:31:15.650Z,28.43
2023-01-23T11:34:26.032Z,28.78
2023-01-23T11:37:19.607Z,28.76
2023-01-23T11:43:18.453Z,28.81
2023-01-23T11:50:18.999Z,28.76
2023-01-23T11:53:43.019Z,28.88
2023-01-23T11:57:00.623Z,28.78
2023-01-23T12:00:19.987Z,28.64
2023-01-23T12:02:57.416Z,28.50
2023-01-23T12:05:45.989Z,28.41
2023-01-23T12:08:53.363Z,28.57
2023-01-23T12:11:27.439Z,28.40
2023-01-23T12:14:06.417Z,28.44
2023-01-23T12:17:40.727Z,28.61
2023-01-23T12:20:29.242Z,28.58
2023-01-23T12:23:42.990Z,28.71
2023-01-23T12:37:29.892Z,28.82
2023-01-23T12:40:46.849Z,28.82
2023-01-23T12:44:30.086Z,28.79
2023-01-23T12:47:06.075Z,28.82
2023-01-23T12:50:00.460Z,28.82
2023-01-23T12:52:58.943Z,28.95
2023-01-23T12:55:57.270Z,28.81
2023-01-23T12:58:32.780Z,28.84
2023-01-23T13:01:23.605Z,28.88
2023-01-23T13:04:41.393Z,28.95
2023-01-23T13:11:57.936Z,29.09
2023-01-23T13:18:10.056Z,29.15
2023-01-23T13:21:17.381Z,29.14
2023-01-23T13:24:23.499Z,29.04
2023-01-23T13:26:57.396Z,29.19
2023-01-23T13:29:52.222Z,29.42
2023-01-23T13:32:24.505Z,29.32
2023-01-23T13:34:55.927Z,29.42
2023-01-23T13:37:55.817Z,29.55
2023-01-23T13:40:26.741Z,29.43
2023-01-23T13:42:56.558Z,29.35
2023-01-23T13:45:29.097Z,29.35
2023-01-23T14:21:56.077Z,29.50
2023-01-23T14:24:48.062Z,29.76
2023-01-23T14:27:30.690Z,29.78
2023-01-23T14:30:06.189Z,29.70
2023-01-23T14:32:36.066Z,30.06
2023-01-23T14:35:19.337Z,29.78
2023-01-23T14:37:49.970Z,29.78
2023-01-23T14:40:27.714Z,29.86
2023-01-23T14:43:09.339Z,29.70
2023-01-23T14:45:40.260Z,29.78
2023-01-23T14:48:17.265Z,29.73
2023-01-23T14:50:47.602Z,29.53
2023-01-23T14:53:18.659Z,29.65
2023-01-23T14:55:50.997Z,29.84
2023-01-23T14:58:25.642Z,29.70
2023-01-23T15:00:56.822Z,29.77
2023-01-23T15:03:56.319Z,29.91
2023-01-23T15:06:28.695Z,30.29
2023-01-23T15:09:17.355Z,30.03
2023-01-23T15:11:47.633Z,29.93
2023-01-23T15:14:27.072Z,30.00
2023-01-23T15:17:13.255Z,30.04
2023-01-23T15:19:43.745Z,29.84
2023-01-23T15:22:26.856Z,29.87
2023-01-23T15:25:29.788Z,29.97
2023-01-23T15:27:59.961Z,29.86
2023-01-23T15:30:42.103Z,29.86
2023-01-23T15:33:32.166Z,30.04
2023-01-23T15:36:28.520Z,30.03
2023-01-23T15:39:00.956Z,29.93
2023-01-23T15:41:49.759Z,29.69
2023-01-23T15:44:22.300Z,29.36
2023-01-23T15:46:53.051Z,29.52
2023-01-23T15:49:26.393Z,29.42
2023-01-23T15:51:58.571Z,29.29
2023-01-23T15:54:33.956Z,29.08
2023-01-23T15:57:08.547Z,29.39
2023-01-23T15:59:39.741Z,29.12
2023-01-23T16:02:29.565Z,29.09
2023-01-23T16:05:02.280Z,28.99
2023-01-23T16:07:35.572Z,29.12
2023-01-23T16:10:09.747Z,29.39
2023-01-23T16:12:41.205Z,29.42
2023-01-23T16:15:23.475Z,29.60
2023-01-23T16:17:54.021Z,29.59
2023-01-23T16:20:25.376Z,28.90
2023-01-23T16:23:11.712Z,28.79
2023-01-23T16:25:46.354Z,28.94
2023-01-23T16:28:19.021Z,28.87
2023-01-23T16:30:50.960Z,28.95
2023-01-23T16:33:24.556Z,29.08
2023-01-23T16:35:56.532Z,29.32
2023-01-23T16:38:29.535Z,29.19
2023-01-23T16:41:02.661Z,29.27
2023-01-23T16:43:33.036Z,29.18
2023-01-23T16:46:03.781Z,28.88
2023-01-23T16:48:35.027Z,28.79
2023-01-23T16:51:14.713Z,28.52
2023-01-23T16:53:50.948Z,28.24
2023-01-23T16:56:42.488Z,28.11
2023-01-23T16:59:22.925Z,27.94
2023-01-23T17:01:54.476Z,28.00
2023-01-23T17:04:24.689Z,27.97
2023-01-23T17:06:54.680Z,28.10
2023-01-23T17:09:25.439Z,28.18
2023-01-23T17:11:58.540Z,28.25
2023-01-23T17:14:32.413Z,28.24
2023-01-23T17:17:11.571Z,28.16
2023-01-23T17:19:43.856Z,28.10
2023-01-23T17:22:27.497Z,28.04
2023-01-23T17:24:58.241Z,27.89
2023-01-23T17:27:28.820Z,27.83
2023-01-23T17:29:59.511Z,27.56
2023-01-23T17:32:38.495Z,27.53
2023-01-23T17:35:20.292Z,27.52
2023-01-23T17:37:51.785Z,27.65
2023-01-23T17:40:22.645Z,27.56
2023-01-23T17:42:55.213Z,27.49
2023-01-23T17:45:28.412Z,27.42
2023-01-23T17:48:00.611Z,27.24
2023-01-23T17:50:31.120Z,27.34
2023-01-23T17:53:01.763Z,27.46
2023-01-23T17:55:38.653Z,27.45
2023-01-23T17:58:09.490Z,27.52
2023-01-23T18:00:41.149Z,27.49
2023-01-23T18:03:15.511Z,27.49
2023-01-23T18:05:45.919Z,27.38
2023-01-23T18:08:19.277Z,27.42
2023-01-23T18:10:52.884Z,27.43
2023-01-23T18:14:00.906Z,27.35
2023-01-23T18:16:42.882Z,27.22
2023-01-23T18:19:22.943Z,27.18
2023-01-23T18:21:56.025Z,27.22
2023-01-23T18:24:32.976Z,27.24
2023-01-23T18:27:18.664Z,27.31
2023-01-23T18:30:33.548Z,27.39
2023-01-23T18:33:16.932Z,27.29
2023-01-23T18:36:02.473Z,27.41
2023-01-23T18:38:58.311Z,27.52
2023-01-23T18:41:30.616Z,27.46
2023-01-23T18:44:08.974Z,27.43
2023-01-23T18:46:39.704Z,27.56
2023-01-23T18:49:16.925Z,27.86
2023-01-23T18:52:11.050Z,28.27
2023-01-23T18:55:04.185Z,28.36
2023-01-23T18:57:50.236Z,28.36
2023-01-23T19:00:42.022Z,28.18
2023-01-23T19:03:16.919Z,28.24
2023-01-23T19:05:48.189Z,28.31
2023-01-23T19:08:29.549Z,28.33
2023-01-23T19:11:06.536Z,28.27
2023-01-23T19:13:46.113Z,28.21
2023-01-23T19:16:38.710Z,28.47
2023-01-23T19:19:30.519Z,28.57
2023-01-23T19:22:01.279Z,28.55
2023-01-23T19:24:32.545Z,28.61
2023-01-23T19:27:06.846Z,28.71
2023-01-23T19:29:38.738Z,28.76
2023-01-23T19:32:16.613Z,28.79
2023-01-23T19:34:48.015Z,28.81
2023-01-23T19:37:19.998Z,28.78
2023-01-23T19:39:50.876Z,28.64
2023-01-23T19:42:21.762Z,28.67
2023-01-23T19:44:53.414Z,28.78
2023-01-23T19:47:23.548Z,28.82
2023-01-23T19:49:54.257Z,28.85
2023-01-23T19:52:25.931Z,28.79
2023-01-23T19:54:56.749Z,28.90
2023-01-23T19:57:26.663Z,28.78
2023-01-23T19:59:56.877Z,28.85
2023-01-23T20:02:27.696Z,28.79
2023-01-23T20:04:59.828Z,28.81
2023-01-23T20:07:29.912Z,28.82
2023-01-23T20:09:59.965Z,28.72
2023-01-23T20:12:30.101Z,28.82
2023-01-23T20:15:00.531Z,28.75
2023-01-23T20:17:30.700Z,28.61
2023-01-23T20:20:12.515Z,28.61
2023-01-23T20:22:44.775Z,28.45
2023-01-23T20:25:20.557Z,28.48
2023-01-23T20:27:52.137Z,28.52
2023-01-23T20:30:23.240Z,28.41
2023-01-23T20:32:53.708Z,28.40
2023-01-23T20:35:25.107Z,28.37
2023-01-23T20:37:55.628Z,28.34
2023-01-23T20:40:25.707Z,28.21
2023-01-23T20:42:56.155Z,28.24
2023-01-23T20:45:43.213Z,28.30
2023-01-23T20:48:35.714Z,28.18
2023-01-23T20:51:13.249Z,28.21
2023-01-23T20:56:43.747Z,28.17
2023-01-23T21:02:44.850Z,28.04
2023-01-23T21:05:28.196Z,28.07
2023-01-23T21:07:59.001Z,28.03
2023-01-23T21:10:57.279Z,28.03
2023-01-23T21:13:50.392Z,28.06
2023-01-23T21:16:26.315Z,28.01
2023-01-23T21:18:58.261Z,27.93
2023-01-23T21:21:29.950Z,27.78
2023-01-23T21:24:00.502Z,27.79
2023-01-23T21:26:31.245Z,27.76
2023-01-23T21:29:01.796Z,27.73
2023-01-23T21:31:37.039Z,27.73
2023-01-23T21:34:10.349Z,27.66
2023-01-23T21:36:42.529Z,27.56
2023-01-23T21:39:15.621Z,27.56
2023-01-23T21:41:45.811Z,27.43
2023-01-23T21:44:16.009Z,27.31
2023-01-23T21:46:48.166Z,27.28
2023-01-23T21:49:18.715Z,27.24
2023-01-23T21:51:48.620Z,27.21
2023-01-23T21:54:20.805Z,27.25
2023-01-23T21:56:50.938Z,27.21
2023-01-23T21:59:20.823Z,27.12
2023-01-23T22:01:51.176Z,27.11
2023-01-23T22:04:25.814Z,27.11
2023-01-23T22:06:58.246Z,27.04
2023-01-23T22:09:29.253Z,26.99
2023-01-23T22:11:59.516Z,27.01
2023-01-23T22:14:29.440Z,26.92
2023-01-23T22:16:59.601Z,26.85
2023-01-23T22:19:29.739Z,26.80
2023-01-23T22:21:59.994Z,26.78
2023-01-23T22:24:31.488Z,26.73
2023-01-23T22:27:01.784Z,26.67
2023-01-23T22:29:31.706Z,26.65
2023-01-23T22:32:10.690Z,26.56
2023-01-23T22:34:41.623Z,26.53
2023-01-23T22:37:17.031Z,26.48
2023-01-23T22:39:48.805Z,26.51
2023-01-23T22:42:20.309Z,26.54
2023-01-23T22:44:50.338Z,26.51
2023-01-23T22:47:36.199Z,26.60
2023-01-23T22:50:07.364Z,26.56
2023-01-23T22:52:38.565Z,26.56
2023-01-23T22:55:11.058Z,26.56
2023-01-23T22:57:49.186Z,26.53
2023-01-23T23:00:20.198Z,26.54
2023-01-23T23:02:50.323Z,26.53
2023-01-23T23:05:20.411Z,26.56
2023-01-23T23:07:50.917Z,26.54
2023-01-23T23:10:21.182Z,26.48
2023-01-23T23:12:51.590Z,26.48
2023-01-23T23:15:22.640Z,26.43
2023-01-23T23:17:53.102Z,26.41
2023-01-23T23:20:23.012Z,26.36
2023-01-23T23:22:54.397Z,26.37
2023-01-23T23:25:24.531Z,26.36
2023-01-23T23:27:54.684Z,26.29
2023-01-23T23:30:26.339Z,26.22
2023-01-23T23:32:56.675Z,26.16
2023-01-23T23:35:27.226Z,26.14
2023-01-23T23:37:57.645Z,26.10
2023-01-23T23:40:29.305Z,26.10
2023-01-23T23:43:00.513Z,26.16
2023-01-23T23:45:30.729Z,26.13
2023-01-23T23:54:08.012Z,25.99
2023-01-23T23:56:39.093Z,25.95
2023-01-23T23:59:18.508Z,25.88
